sensor_id;sensor_type;location;lat;lon;timestamp;temperature;humidity
20481;DHT22;10399;50.754;3.366;2023-07-20T00:00:46;19.50;99.90
20481;DHT22;10399;50.754;3.366;2023-07-20T00:03:14;19.40;99.90
20481;DHT22;10399;50.754;3.366;2023-07-20T00:05:46;19.50;99.90
20481;DHT22;10399;50.754;3.366;2023-07-20T00:08:14;19.50;99.90
20481;DHT22;10399;50.754;3.366;2023-07-20T00:10:42;19.50;99.90
20481;DHT22;10399;50.754;3.366;2023-07-20T00:13:13;19.70;99.90
20481;DHT22;10399;50.754;3.366;2023-07-20T00:15:40;19.70;99.90
20481;DHT22;10399;50.754;3.366;2023-07-20T00:18:07;19.50;99.90
20481;DHT22;10399;50.754;3.366;2023-07-20T00:20:35;19.60;99.90
20481;DHT22;10399;50.754;3.366;2023-07-20T00:23:02;19.50;99.90
20481;DHT22;10399;50.754;3.366;2023-07-20T00:25:29;19.50;99.90
20481;DHT22;10399;50.754;3.366;2023-07-20T00:27:58;19.30;99.90
20481;DHT22;10399;50.754;3.366;2023-07-20T00:30:25;19.20;99.90
20481;DHT22;10399;50.754;3.366;2023-07-20T00:32:53;19.20;99.90
20481;DHT22;10399;50.754;3.366;2023-07-20T00:35:21;19.30;99.90
20481;DHT22;10399;50.754;3.366;2023-07-20T00:37:48;19.20;99.90
20481;DHT22;10399;50.754;3.366;2023-07-20T00:40:16;19.00;99.90
20481;DHT22;10399;50.754;3.366;2023-07-20T00:42:44;19.00;99.90
20481;DHT22;10399;50.754;3.366;2023-07-20T00:45:11;19.00;99.90
20481;DHT22;10399;50.754;3.366;2023-07-20T00:47:41;18.90;99.90
20481;DHT22;10399;50.754;3.366;2023-07-20T00:50:09;19.00;99.90
20481;DHT22;10399;50.754;3.366;2023-07-20T00:52:38;19.20;99.90
20481;DHT22;10399;50.754;3.366;2023-07-20T00:55:09;19.10;99.90
20481;DHT22;10399;50.754;3.366;2023-07-20T00:57:37;19.20;99.90
20481;DHT22;10399;50.754;3.366;2023-07-20T01:00:06;19.20;99.90
20481;DHT22;10399;50.754;3.366;2023-07-20T01:02:34;19.00;99.90
20481;DHT22;10399;50.754;3.366;2023-07-20T01:05:02;19.10;99.90
20481;DHT22;10399;50.754;3.366;2023-07-20T01:07:31;19.10;99.90
20481;DHT22;10399;50.754;3.366;2023-07-20T01:10:01;19.20;99.90
20481;DHT22;10399;50.754;3.366;2023-07-20T01:12:35;19.10;99.90
20481;DHT22;10399;50.754;3.366;2023-07-20T01:15:09;19.20;99.90
20481;DHT22;10399;50.754;3.366;2023-07-20T01:17:36;19.20;99.90
20481;DHT22;10399;50.754;3.366;2023-07-20T01:20:05;19.00;99.90
20481;DHT22;10399;50.754;3.366;2023-07-20T01:31:28;19.00;99.90
20481;DHT22;10399;50.754;3.366;2023-07-20T01:34:00;19.00;99.90
20481;DHT22;10399;50.754;3.366;2023-07-20T01:36:34;18.90;99.90
20481;DHT22;10399;50.754;3.366;2023-07-20T01:39:02;19.10;99.90
20481;DHT22;10399;50.754;3.366;2023-07-20T01:41:31;19.00;99.90
20481;DHT22;10399;50.754;3.366;2023-07-20T01:43:58;19.00;99.90
20481;DHT22;10399;50.754;3.366;2023-07-20T01:46:29;19.10;99.90
20481;DHT22;10399;50.754;3.366;2023-07-20T01:48:57;19.10;99.90
20481;DHT22;10399;50.754;3.366;2023-07-20T01:51:25;18.80;99.90
20481;DHT22;10399;50.754;3.366;2023-07-20T01:53:52;18.70;99.90
20481;DHT22;10399;50.754;3.366;2023-07-20T01:56:21;18.60;99.90
20481;DHT22;10399;50.754;3.366;2023-07-20T01:58:49;18.60;99.90
20481;DHT22;10399;50.754;3.366;2023-07-20T02:01:18;18.50;99.90
20481;DHT22;10399;50.754;3.366;2023-07-20T02:03:46;18.60;99.90
20481;DHT22;10399;50.754;3.366;2023-07-20T02:06:13;18.50;99.90
20481;DHT22;10399;50.754;3.366;2023-07-20T02:08:40;18.50;99.90
20481;DHT22;10399;50.754;3.366;2023-07-20T02:11:07;18.40;99.90
20481;DHT22;10399;50.754;3.366;2023-07-20T02:13:37;18.50;99.90
20481;DHT22;10399;50.754;3.366;2023-07-20T02:16:05;18.60;99.90
20481;DHT22;10399;50.754;3.366;2023-07-20T02:18:32;18.60;99.90
20481;DHT22;10399;50.754;3.366;2023-07-20T02:20:59;18.70;99.90
20481;DHT22;10399;50.754;3.366;2023-07-20T02:23:27;18.70;99.90
20481;DHT22;10399;50.754;3.366;2023-07-20T02:25:54;18.70;99.90
20481;DHT22;10399;50.754;3.366;2023-07-20T02:28:21;18.70;99.90
20481;DHT22;10399;50.754;3.366;2023-07-20T02:30:48;18.60;99.90
20481;DHT22;10399;50.754;3.366;2023-07-20T02:33:21;18.60;99.90
20481;DHT22;10399;50.754;3.366;2023-07-20T02:35:50;18.60;99.90
20481;DHT22;10399;50.754;3.366;2023-07-20T02:38:18;18.60;99.90
20481;DHT22;10399;50.754;3.366;2023-07-20T02:40:45;18.70;99.90
20481;DHT22;10399;50.754;3.366;2023-07-20T02:43:14;18.70;99.90
20481;DHT22;10399;50.754;3.366;2023-07-20T02:45:43;18.80;99.90
20481;DHT22;10399;50.754;3.366;2023-07-20T02:48:10;18.80;99.90
20481;DHT22;10399;50.754;3.366;2023-07-20T02:50:38;18.60;99.90
20481;DHT22;10399;50.754;3.366;2023-07-20T02:53:09;18.50;99.90
20481;DHT22;10399;50.754;3.366;2023-07-20T02:55:37;18.40;99.90
20481;DHT22;10399;50.754;3.366;2023-07-20T02:58:04;18.40;99.90
20481;DHT22;10399;50.754;3.366;2023-07-20T03:00:32;18.30;99.90
20481;DHT22;10399;50.754;3.366;2023-07-20T03:03:00;18.40;99.90
20481;DHT22;10399;50.754;3.366;2023-07-20T03:05:28;18.40;99.90
20481;DHT22;10399;50.754;3.366;2023-07-20T03:07:57;18.30;99.90
20481;DHT22;10399;50.754;3.366;2023-07-20T03:10:30;18.40;99.90
20481;DHT22;10399;50.754;3.366;2023-07-20T03:12:57;18.30;99.90
20481;DHT22;10399;50.754;3.366;2023-07-20T03:15:28;18.30;99.90
20481;DHT22;10399;50.754;3.366;2023-07-20T03:17:58;18.40;99.90
20481;DHT22;10399;50.754;3.366;2023-07-20T03:20:27;18.30;99.90
20481;DHT22;10399;50.754;3.366;2023-07-20T03:22:59;18.30;99.90
20481;DHT22;10399;50.754;3.366;2023-07-20T03:25:28;18.30;99.90
20481;DHT22;10399;50.754;3.366;2023-07-20T03:27:58;18.40;99.90
20481;DHT22;10399;50.754;3.366;2023-07-20T03:30:28;18.70;99.90
20481;DHT22;10399;50.754;3.366;2023-07-20T03:32:58;18.70;99.90
20481;DHT22;10399;50.754;3.366;2023-07-20T03:35:28;18.60;99.90
20481;DHT22;10399;50.754;3.366;2023-07-20T03:37:55;18.60;99.90
20481;DHT22;10399;50.754;3.366;2023-07-20T03:40:22;18.50;99.90
20481;DHT22;10399;50.754;3.366;2023-07-20T03:42:50;18.50;99.90
20481;DHT22;10399;50.754;3.366;2023-07-20T03:45:17;18.50;99.90
20481;DHT22;10399;50.754;3.366;2023-07-20T03:47:44;18.50;99.90
20481;DHT22;10399;50.754;3.366;2023-07-20T03:50:14;18.50;99.90
20481;DHT22;10399;50.754;3.366;2023-07-20T03:52:43;18.60;99.90
20481;DHT22;10399;50.754;3.366;2023-07-20T03:55:10;18.50;99.90
20481;DHT22;10399;50.754;3.366;2023-07-20T03:57:37;18.50;99.90
20481;DHT22;10399;50.754;3.366;2023-07-20T04:00:05;18.50;99.90
20481;DHT22;10399;50.754;3.366;2023-07-20T04:02:37;18.50;99.90
20481;DHT22;10399;50.754;3.366;2023-07-20T04:05:05;18.50;99.90
20481;DHT22;10399;50.754;3.366;2023-07-20T04:07:32;18.50;99.90
20481;DHT22;10399;50.754;3.366;2023-07-20T04:10:00;18.50;99.90
20481;DHT22;10399;50.754;3.366;2023-07-20T04:12:30;18.40;99.90
20481;DHT22;10399;50.754;3.366;2023-07-20T04:14:57;18.40;99.90
20481;DHT22;10399;50.754;3.366;2023-07-20T04:17:24;18.50;99.90
20481;DHT22;10399;50.754;3.366;2023-07-20T04:19:52;18.60;99.90
20481;DHT22;10399;50.754;3.366;2023-07-20T04:22:19;18.50;99.90
20481;DHT22;10399;50.754;3.366;2023-07-20T04:24:46;18.60;99.90
20481;DHT22;10399;50.754;3.366;2023-07-20T04:27:14;18.70;99.90
20481;DHT22;10399;50.754;3.366;2023-07-20T04:29:41;18.70;99.90
20481;DHT22;10399;50.754;3.366;2023-07-20T04:32:08;18.70;99.90
20481;DHT22;10399;50.754;3.366;2023-07-20T04:34:35;18.70;99.90
20481;DHT22;10399;50.754;3.366;2023-07-20T04:37:04;18.60;99.90
20481;DHT22;10399;50.754;3.366;2023-07-20T04:39:31;18.60;99.90
20481;DHT22;10399;50.754;3.366;2023-07-20T04:41:59;18.60;99.90
20481;DHT22;10399;50.754;3.366;2023-07-20T04:44:26;18.50;99.90
20481;DHT22;10399;50.754;3.366;2023-07-20T04:46:53;18.50;99.90
20481;DHT22;10399;50.754;3.366;2023-07-20T04:49:20;18.60;99.90
20481;DHT22;10399;50.754;3.366;2023-07-20T04:51:48;18.70;99.90
20481;DHT22;10399;50.754;3.366;2023-07-20T04:54:15;18.70;99.90
20481;DHT22;10399;50.754;3.366;2023-07-20T04:56:44;18.70;99.90
20481;DHT22;10399;50.754;3.366;2023-07-20T04:59:11;18.70;99.90
20481;DHT22;10399;50.754;3.366;2023-07-20T05:01:38;18.50;99.90
20481;DHT22;10399;50.754;3.366;2023-07-20T05:04:06;18.50;99.90
20481;DHT22;10399;50.754;3.366;2023-07-20T05:06:35;18.50;99.90
20481;DHT22;10399;50.754;3.366;2023-07-20T05:09:02;18.50;99.90
20481;DHT22;10399;50.754;3.366;2023-07-20T05:11:29;18.60;99.90
20481;DHT22;10399;50.754;3.366;2023-07-20T05:13:56;18.60;99.90
20481;DHT22;10399;50.754;3.366;2023-07-20T05:16:23;18.50;99.90
20481;DHT22;10399;50.754;3.366;2023-07-20T05:18:51;18.50;99.90
20481;DHT22;10399;50.754;3.366;2023-07-20T05:21:18;18.60;99.90
20481;DHT22;10399;50.754;3.366;2023-07-20T05:23:45;18.50;99.90
20481;DHT22;10399;50.754;3.366;2023-07-20T05:26:14;18.50;99.90
20481;DHT22;10399;50.754;3.366;2023-07-20T05:28:43;18.70;99.90
20481;DHT22;10399;50.754;3.366;2023-07-20T05:31:10;18.70;99.90
20481;DHT22;10399;50.754;3.366;2023-07-20T05:33:37;18.50;99.90
20481;DHT22;10399;50.754;3.366;2023-07-20T05:36:04;18.30;99.90
20481;DHT22;10399;50.754;3.366;2023-07-20T05:38:32;18.40;99.90
20481;DHT22;10399;50.754;3.366;2023-07-20T05:41:00;18.50;99.90
20481;DHT22;10399;50.754;3.366;2023-07-20T05:43:31;18.50;99.90
20481;DHT22;10399;50.754;3.366;2023-07-20T05:45:58;18.40;99.90
20481;DHT22;10399;50.754;3.366;2023-07-20T05:48:25;18.30;99.90
20481;DHT22;10399;50.754;3.366;2023-07-20T05:50:52;18.30;99.90
20481;DHT22;10399;50.754;3.366;2023-07-20T05:53:19;18.40;99.90
20481;DHT22;10399;50.754;3.366;2023-07-20T05:55:55;18.30;99.90
20481;DHT22;10399;50.754;3.366;2023-07-20T05:58:23;18.20;99.90
20481;DHT22;10399;50.754;3.366;2023-07-20T06:00:51;18.20;99.90
20481;DHT22;10399;50.754;3.366;2023-07-20T06:03:18;18.40;99.90
20481;DHT22;10399;50.754;3.366;2023-07-20T06:05:46;18.50;99.90
20481;DHT22;10399;50.754;3.366;2023-07-20T06:08:16;18.60;99.90
20481;DHT22;10399;50.754;3.366;2023-07-20T06:10:50;18.60;99.90
20481;DHT22;10399;50.754;3.366;2023-07-20T06:13:18;18.90;99.90
20481;DHT22;10399;50.754;3.366;2023-07-20T06:15:45;19.00;99.90
20481;DHT22;10399;50.754;3.366;2023-07-20T06:18:13;19.00;99.90
20481;DHT22;10399;50.754;3.366;2023-07-20T06:20:40;18.90;99.90
20481;DHT22;10399;50.754;3.366;2023-07-20T06:23:07;19.10;99.90
20481;DHT22;10399;50.754;3.366;2023-07-20T06:25:34;19.10;99.90
20481;DHT22;10399;50.754;3.366;2023-07-20T06:28:02;19.10;99.90
20481;DHT22;10399;50.754;3.366;2023-07-20T06:30:33;19.10;99.90
20481;DHT22;10399;50.754;3.366;2023-07-20T06:33:01;19.30;99.90
20481;DHT22;10399;50.754;3.366;2023-07-20T06:35:29;19.40;99.90
20481;DHT22;10399;50.754;3.366;2023-07-20T06:37:56;19.60;99.90
20481;DHT22;10399;50.754;3.366;2023-07-20T06:40:46;19.50;99.90
20481;DHT22;10399;50.754;3.366;2023-07-20T06:43:16;19.50;99.90
20481;DHT22;10399;50.754;3.366;2023-07-20T06:45:54;19.70;99.90
20481;DHT22;10399;50.754;3.366;2023-07-20T06:48:21;19.70;99.90
20481;DHT22;10399;50.754;3.366;2023-07-20T06:50:48;19.70;99.90
20481;DHT22;10399;50.754;3.366;2023-07-20T06:53:16;19.60;99.90
20481;DHT22;10399;50.754;3.366;2023-07-20T06:55:44;19.70;99.90
20481;DHT22;10399;50.754;3.366;2023-07-20T06:58:11;19.70;99.90
20481;DHT22;10399;50.754;3.366;2023-07-20T07:00:38;19.80;99.90
20481;DHT22;10399;50.754;3.366;2023-07-20T07:03:06;19.90;99.90
20481;DHT22;10399;50.754;3.366;2023-07-20T07:05:37;20.10;99.90
20481;DHT22;10399;50.754;3.366;2023-07-20T07:08:06;20.30;99.90
20481;DHT22;10399;50.754;3.366;2023-07-20T07:10:35;20.60;99.90
20481;DHT22;10399;50.754;3.366;2023-07-20T07:13:03;20.80;99.90
20481;DHT22;10399;50.754;3.366;2023-07-20T07:15:33;20.80;99.90
20481;DHT22;10399;50.754;3.366;2023-07-20T07:18:07;20.90;99.90
20481;DHT22;10399;50.754;3.366;2023-07-20T07:20:37;20.70;99.90
20481;DHT22;10399;50.754;3.366;2023-07-20T07:23:04;20.80;99.90
20481;DHT22;10399;50.754;3.366;2023-07-20T07:25:31;20.80;99.90
20481;DHT22;10399;50.754;3.366;2023-07-20T07:27:59;20.80;99.90
20481;DHT22;10399;50.754;3.366;2023-07-20T07:30:27;20.90;99.90
20481;DHT22;10399;50.754;3.366;2023-07-20T07:32:54;21.00;99.90
20481;DHT22;10399;50.754;3.366;2023-07-20T07:35:21;21.10;99.90
20481;DHT22;10399;50.754;3.366;2023-07-20T07:37:51;21.20;99.90
20481;DHT22;10399;50.754;3.366;2023-07-20T07:40:38;21.40;99.90
20481;DHT22;10399;50.754;3.366;2023-07-20T07:43:06;21.40;99.90
20481;DHT22;10399;50.754;3.366;2023-07-20T07:45:35;21.40;99.90
20481;DHT22;10399;50.754;3.366;2023-07-20T07:48:05;21.50;99.90
20481;DHT22;10399;50.754;3.366;2023-07-20T07:50:34;21.50;99.90
20481;DHT22;10399;50.754;3.366;2023-07-20T07:53:01;21.40;99.90
20481;DHT22;10399;50.754;3.366;2023-07-20T07:55:28;21.40;99.90
20481;DHT22;10399;50.754;3.366;2023-07-20T07:57:55;21.30;99.90
20481;DHT22;10399;50.754;3.366;2023-07-20T08:00:22;21.30;99.90
20481;DHT22;10399;50.754;3.366;2023-07-20T08:02:50;21.40;99.90
20481;DHT22;10399;50.754;3.366;2023-07-20T08:05:18;21.50;99.90
20481;DHT22;10399;50.754;3.366;2023-07-20T08:07:45;21.40;99.90
20481;DHT22;10399;50.754;3.366;2023-07-20T08:10:13;21.10;99.90
20481;DHT22;10399;50.754;3.366;2023-07-20T08:12:40;21.30;99.90
20481;DHT22;10399;50.754;3.366;2023-07-20T08:15:07;21.30;99.90
20481;DHT22;10399;50.754;3.366;2023-07-20T08:17:35;21.40;99.90
20481;DHT22;10399;50.754;3.366;2023-07-20T08:20:02;21.50;99.90
20481;DHT22;10399;50.754;3.366;2023-07-20T08:22:29;21.50;99.90
20481;DHT22;10399;50.754;3.366;2023-07-20T08:24:56;21.80;99.90
20481;DHT22;10399;50.754;3.366;2023-07-20T08:27:25;21.80;99.90
20481;DHT22;10399;50.754;3.366;2023-07-20T08:29:53;21.90;99.90
20481;DHT22;10399;50.754;3.366;2023-07-20T08:32:20;22.00;99.90
20481;DHT22;10399;50.754;3.366;2023-07-20T08:34:48;22.10;99.90
20481;DHT22;10399;50.754;3.366;2023-07-20T08:37:15;22.00;99.90
20481;DHT22;10399;50.754;3.366;2023-07-20T08:39:42;21.90;99.90
20481;DHT22;10399;50.754;3.366;2023-07-20T08:42:12;22.10;99.90
20481;DHT22;10399;50.754;3.366;2023-07-20T08:44:42;22.10;99.90
20481;DHT22;10399;50.754;3.366;2023-07-20T08:47:12;21.80;99.90
20481;DHT22;10399;50.754;3.366;2023-07-20T08:49:40;22.00;99.90
20481;DHT22;10399;50.754;3.366;2023-07-20T08:52:10;22.30;99.90
20481;DHT22;10399;50.754;3.366;2023-07-20T08:54:39;22.60;99.90
20481;DHT22;10399;50.754;3.366;2023-07-20T08:57:11;23.10;99.90
20481;DHT22;10399;50.754;3.366;2023-07-20T08:59:43;23.10;99.90
20481;DHT22;10399;50.754;3.366;2023-07-20T09:02:16;23.20;99.90
20481;DHT22;10399;50.754;3.366;2023-07-20T09:04:50;23.20;99.90
20481;DHT22;10399;50.754;3.366;2023-07-20T09:07:20;23.60;99.90
20481;DHT22;10399;50.754;3.366;2023-07-20T09:09:47;23.40;99.90
20481;DHT22;10399;50.754;3.366;2023-07-20T09:12:15;23.70;99.90
20481;DHT22;10399;50.754;3.366;2023-07-20T09:14:46;23.50;99.90
20481;DHT22;10399;50.754;3.366;2023-07-20T09:17:13;23.90;99.90
20481;DHT22;10399;50.754;3.366;2023-07-20T09:19:48;24.10;99.90
20481;DHT22;10399;50.754;3.366;2023-07-20T09:22:15;24.00;99.90
20481;DHT22;10399;50.754;3.366;2023-07-20T09:24:44;24.30;99.90
20481;DHT22;10399;50.754;3.366;2023-07-20T09:27:12;24.60;99.90
20481;DHT22;10399;50.754;3.366;2023-07-20T09:29:49;24.60;99.90
20481;DHT22;10399;50.754;3.366;2023-07-20T09:32:21;24.70;99.90
20481;DHT22;10399;50.754;3.366;2023-07-20T09:34:51;25.00;99.90
20481;DHT22;10399;50.754;3.366;2023-07-20T09:37:22;25.20;99.90
20481;DHT22;10399;50.754;3.366;2023-07-20T09:39:52;25.00;99.90
20481;DHT22;10399;50.754;3.366;2023-07-20T09:42:26;25.00;99.90
20481;DHT22;10399;50.754;3.366;2023-07-20T09:44:56;25.00;99.90
20481;DHT22;10399;50.754;3.366;2023-07-20T09:47:25;25.00;99.90
20481;DHT22;10399;50.754;3.366;2023-07-20T09:49:58;24.60;99.90
20481;DHT22;10399;50.754;3.366;2023-07-20T09:52:29;24.30;99.90
20481;DHT22;10399;50.754;3.366;2023-07-20T09:55:01;24.50;99.90
20481;DHT22;10399;50.754;3.366;2023-07-20T09:57:31;24.60;99.90
20481;DHT22;10399;50.754;3.366;2023-07-20T10:00:00;25.10;99.90
20481;DHT22;10399;50.754;3.366;2023-07-20T10:02:34;25.40;99.90
20481;DHT22;10399;50.754;3.366;2023-07-20T10:05:04;25.50;99.90
20481;DHT22;10399;50.754;3.366;2023-07-20T10:07:35;25.40;99.90
20481;DHT22;10399;50.754;3.366;2023-07-20T10:10:06;25.30;99.90
20481;DHT22;10399;50.754;3.366;2023-07-20T10:12:38;25.00;99.90
20481;DHT22;10399;50.754;3.366;2023-07-20T10:15:19;24.50;99.90
20481;DHT22;10399;50.754;3.366;2023-07-20T10:18:15;24.40;99.90
20481;DHT22;10399;50.754;3.366;2023-07-20T10:20:44;24.30;99.90
20481;DHT22;10399;50.754;3.366;2023-07-20T10:23:17;23.90;99.90
20481;DHT22;10399;50.754;3.366;2023-07-20T10:25:44;23.80;99.90
20481;DHT22;10399;50.754;3.366;2023-07-20T10:28:13;23.80;99.90
20481;DHT22;10399;50.754;3.366;2023-07-20T10:30:42;24.00;99.90
20481;DHT22;10399;50.754;3.366;2023-07-20T10:33:11;24.10;99.90
20481;DHT22;10399;50.754;3.366;2023-07-20T10:36:01;24.30;99.90
20481;DHT22;10399;50.754;3.366;2023-07-20T10:43:49;24.70;99.90
20481;DHT22;10399;50.754;3.366;2023-07-20T10:49:03;24.70;99.90
20481;DHT22;10399;50.754;3.366;2023-07-20T10:51:39;24.30;99.90
20481;DHT22;10399;50.754;3.366;2023-07-20T10:56:44;24.00;99.90
20481;DHT22;10399;50.754;3.366;2023-07-20T10:59:19;24.00;99.90
20481;DHT22;10399;50.754;3.366;2023-07-20T11:01:47;24.00;99.90
20481;DHT22;10399;50.754;3.366;2023-07-20T11:04:17;23.80;99.90
20481;DHT22;10399;50.754;3.366;2023-07-20T11:06:55;23.70;99.90
20481;DHT22;10399;50.754;3.366;2023-07-20T11:09:23;23.70;99.90
20481;DHT22;10399;50.754;3.366;2023-07-20T11:12:11;23.80;99.90
20481;DHT22;10399;50.754;3.366;2023-07-20T11:14:55;23.70;99.90
20481;DHT22;10399;50.754;3.366;2023-07-20T11:17:33;23.10;99.90
20481;DHT22;10399;50.754;3.366;2023-07-20T11:20:02;23.10;99.90
20481;DHT22;10399;50.754;3.366;2023-07-20T11:22:33;23.00;99.90
20481;DHT22;10399;50.754;3.366;2023-07-20T11:25:01;23.00;99.90
20481;DHT22;10399;50.754;3.366;2023-07-20T11:27:30;23.20;99.90
20481;DHT22;10399;50.754;3.366;2023-07-20T11:29:57;23.10;99.90
20481;DHT22;10399;50.754;3.366;2023-07-20T11:32:24;23.20;99.90
20481;DHT22;10399;50.754;3.366;2023-07-20T11:34:52;23.30;99.90
20481;DHT22;10399;50.754;3.366;2023-07-20T11:37:19;23.60;99.90
20481;DHT22;10399;50.754;3.366;2023-07-20T11:39:46;23.70;99.90
20481;DHT22;10399;50.754;3.366;2023-07-20T11:42:15;23.80;99.90
20481;DHT22;10399;50.754;3.366;2023-07-20T11:44:51;24.10;99.90
20481;DHT22;10399;50.754;3.366;2023-07-20T11:47:20;24.50;99.90
20481;DHT22;10399;50.754;3.366;2023-07-20T11:49:47;24.80;99.90
20481;DHT22;10399;50.754;3.366;2023-07-20T11:52:22;25.20;99.90
20481;DHT22;10399;50.754;3.366;2023-07-20T11:54:50;25.60;99.90
20481;DHT22;10399;50.754;3.366;2023-07-20T11:57:18;26.20;99.90
20481;DHT22;10399;50.754;3.366;2023-07-20T11:59:57;26.40;99.90
20481;DHT22;10399;50.754;3.366;2023-07-20T12:02:29;26.40;99.90
20481;DHT22;10399;50.754;3.366;2023-07-20T12:04:57;26.00;99.90
20481;DHT22;10399;50.754;3.366;2023-07-20T12:07:27;25.90;99.90
20481;DHT22;10399;50.754;3.366;2023-07-20T12:10:07;26.20;99.90
20481;DHT22;10399;50.754;3.366;2023-07-20T12:12:38;26.10;99.90
20481;DHT22;10399;50.754;3.366;2023-07-20T12:15:21;26.10;99.90
20481;DHT22;10399;50.754;3.366;2023-07-20T12:17:53;26.00;99.90
20481;DHT22;10399;50.754;3.366;2023-07-20T12:20:39;25.80;99.90
20481;DHT22;10399;50.754;3.366;2023-07-20T12:23:13;25.60;99.90
20481;DHT22;10399;50.754;3.366;2023-07-20T12:25:42;25.50;99.90
20481;DHT22;10399;50.754;3.366;2023-07-20T12:28:14;25.50;99.90
20481;DHT22;10399;50.754;3.366;2023-07-20T12:30:43;25.50;99.90
20481;DHT22;10399;50.754;3.366;2023-07-20T12:33:14;25.20;99.90
20481;DHT22;10399;50.754;3.366;2023-07-20T12:35:43;25.50;99.90
20481;DHT22;10399;50.754;3.366;2023-07-20T12:38:13;26.10;99.90
20481;DHT22;10399;50.754;3.366;2023-07-20T12:40:41;26.40;99.90
20481;DHT22;10399;50.754;3.366;2023-07-20T12:43:10;26.60;99.90
20481;DHT22;10399;50.754;3.366;2023-07-20T12:45:39;26.60;99.90
20481;DHT22;10399;50.754;3.366;2023-07-20T12:48:07;26.40;99.90
20481;DHT22;10399;50.754;3.366;2023-07-20T12:50:38;26.20;99.90
20481;DHT22;10399;50.754;3.366;2023-07-20T12:53:07;26.00;99.90
20481;DHT22;10399;50.754;3.366;2023-07-20T12:55:34;25.80;99.90
20481;DHT22;10399;50.754;3.366;2023-07-20T12:58:01;25.50;99.90
20481;DHT22;10399;50.754;3.366;2023-07-20T13:00:28;25.40;99.90
20481;DHT22;10399;50.754;3.366;2023-07-20T13:02:55;25.30;99.90
20481;DHT22;10399;50.754;3.366;2023-07-20T13:05:25;25.20;99.90
20481;DHT22;10399;50.754;3.366;2023-07-20T13:07:56;25.00;99.90
20481;DHT22;10399;50.754;3.366;2023-07-20T13:10:27;24.90;99.90
20481;DHT22;10399;50.754;3.366;2023-07-20T13:12:56;25.00;99.90
20481;DHT22;10399;50.754;3.366;2023-07-20T13:15:29;24.80;99.90
20481;DHT22;10399;50.754;3.366;2023-07-20T13:17:59;24.60;99.90
20481;DHT22;10399;50.754;3.366;2023-07-20T13:20:26;24.50;99.90
20481;DHT22;10399;50.754;3.366;2023-07-20T13:22:55;24.40;99.90
20481;DHT22;10399;50.754;3.366;2023-07-20T13:25:22;24.20;99.90
20481;DHT22;10399;50.754;3.366;2023-07-20T13:27:49;23.90;99.90
20481;DHT22;10399;50.754;3.366;2023-07-20T13:30:17;23.70;99.90
20481;DHT22;10399;50.754;3.366;2023-07-20T13:32:45;23.60;99.90
20481;DHT22;10399;50.754;3.366;2023-07-20T13:35:13;23.70;99.90
20481;DHT22;10399;50.754;3.366;2023-07-20T13:37:41;23.50;99.90
20481;DHT22;10399;50.754;3.366;2023-07-20T13:40:08;23.30;99.90
20481;DHT22;10399;50.754;3.366;2023-07-20T13:42:41;23.30;99.90
20481;DHT22;10399;50.754;3.366;2023-07-20T13:45:10;23.20;99.90
20481;DHT22;10399;50.754;3.366;2023-07-20T13:47:37;23.20;99.90
20481;DHT22;10399;50.754;3.366;2023-07-20T13:50:05;23.00;99.90
20481;DHT22;10399;50.754;3.366;2023-07-20T13:52:50;22.60;99.90
20481;DHT22;10399;50.754;3.366;2023-07-20T13:55:37;22.40;99.90
20481;DHT22;10399;50.754;3.366;2023-07-20T13:58:11;22.10;99.90
20481;DHT22;10399;50.754;3.366;2023-07-20T14:00:40;22.10;99.90
20481;DHT22;10399;50.754;3.366;2023-07-20T14:03:12;21.70;99.90
20481;DHT22;10399;50.754;3.366;2023-07-20T14:05:42;21.40;99.90
20481;DHT22;10399;50.754;3.366;2023-07-20T14:08:17;21.40;99.90
20481;DHT22;10399;50.754;3.366;2023-07-20T14:10:46;21.40;99.90
20481;DHT22;10399;50.754;3.366;2023-07-20T14:13:16;21.20;99.90
20481;DHT22;10399;50.754;3.366;2023-07-20T14:15:43;21.20;99.90
20481;DHT22;10399;50.754;3.366;2023-07-20T14:18:11;20.90;99.90
20481;DHT22;10399;50.754;3.366;2023-07-20T14:20:38;20.80;99.90
20481;DHT22;10399;50.754;3.366;2023-07-20T14:23:08;20.80;99.90
20481;DHT22;10399;50.754;3.366;2023-07-20T14:25:39;20.70;99.90
20481;DHT22;10399;50.754;3.366;2023-07-20T14:28:08;20.70;99.90
20481;DHT22;10399;50.754;3.366;2023-07-20T14:30:38;20.70;99.90
20481;DHT22;10399;50.754;3.366;2023-07-20T14:33:07;20.70;99.90
20481;DHT22;10399;50.754;3.366;2023-07-20T14:35:37;20.70;99.90
20481;DHT22;10399;50.754;3.366;2023-07-20T14:38:08;20.50;99.90
20481;DHT22;10399;50.754;3.366;2023-07-20T14:40:35;20.60;99.90
20481;DHT22;10399;50.754;3.366;2023-07-20T14:43:03;20.60;99.90
20481;DHT22;10399;50.754;3.366;2023-07-20T14:45:33;20.90;99.90
20481;DHT22;10399;50.754;3.366;2023-07-20T14:48:04;21.20;99.90
20481;DHT22;10399;50.754;3.366;2023-07-20T14:50:35;21.70;99.90
20481;DHT22;10399;50.754;3.366;2023-07-20T14:53:02;22.10;99.90
20481;DHT22;10399;50.754;3.366;2023-07-20T14:55:34;22.60;99.90
20481;DHT22;10399;50.754;3.366;2023-07-20T14:58:01;23.10;99.90
20481;DHT22;10399;50.754;3.366;2023-07-20T15:00:29;23.30;99.90
20481;DHT22;10399;50.754;3.366;2023-07-20T15:02:57;23.50;99.90
20481;DHT22;10399;50.754;3.366;2023-07-20T15:05:25;23.90;99.90
20481;DHT22;10399;50.754;3.366;2023-07-20T15:07:54;24.10;99.90
20481;DHT22;10399;50.754;3.366;2023-07-20T15:10:22;24.20;99.90
20481;DHT22;10399;50.754;3.366;2023-07-20T15:12:49;24.70;99.90
20481;DHT22;10399;50.754;3.366;2023-07-20T15:15:16;25.10;99.90
20481;DHT22;10399;50.754;3.366;2023-07-20T15:17:44;25.60;99.90
20481;DHT22;10399;50.754;3.366;2023-07-20T15:20:15;25.40;99.90
20481;DHT22;10399;50.754;3.366;2023-07-20T15:22:43;25.60;99.90
20481;DHT22;10399;50.754;3.366;2023-07-20T15:25:15;25.90;99.90
20481;DHT22;10399;50.754;3.366;2023-07-20T15:27:42;26.00;99.90
20481;DHT22;10399;50.754;3.366;2023-07-20T15:30:17;26.20;99.90
20481;DHT22;10399;50.754;3.366;2023-07-20T15:32:47;26.30;99.90
20481;DHT22;10399;50.754;3.366;2023-07-20T15:35:17;26.20;99.90
20481;DHT22;10399;50.754;3.366;2023-07-20T15:37:45;26.30;99.90
20481;DHT22;10399;50.754;3.366;2023-07-20T15:40:12;26.10;99.90
20481;DHT22;10399;50.754;3.366;2023-07-20T15:42:39;26.00;99.90
20481;DHT22;10399;50.754;3.366;2023-07-20T15:45:08;26.10;99.90
20481;DHT22;10399;50.754;3.366;2023-07-20T15:47:35;26.10;99.90
20481;DHT22;10399;50.754;3.366;2023-07-20T15:50:03;25.90;99.90
20481;DHT22;10399;50.754;3.366;2023-07-20T15:52:31;25.90;99.90
20481;DHT22;10399;50.754;3.366;2023-07-20T15:54:58;25.90;99.90
20481;DHT22;10399;50.754;3.366;2023-07-20T15:57:25;25.90;99.90
20481;DHT22;10399;50.754;3.366;2023-07-20T15:59:53;26.20;99.90
20481;DHT22;10399;50.754;3.366;2023-07-20T16:02:20;26.20;99.90